Portada
METAR-TAF:

METAR-TAF

Aeropuertos :

Aeropuerto Internacional de Nayaf

Nayaf, Iraq

latitud: 31-59-23N, longitud: 44-24-15E, altitud: 31 m

Observación

El informe se hizo hace 21 minutos, a las 07:00 UTC
Viento 7 kt del norte
Temperatura 17°C
Humedad 48%
Presión 1019 hPa
Visibilidad: 9000 m

METAR: ORNI 210700Z 36007KT 9000 NSC 17/06 Q1019 NOSIG

Hora: 10:21 (07:21 UTC)

Pronóstico

El informe se hizo hace 3 horas y 21 minutos, a las 04:00 UTC
Pronóstico válido del 21 a las 06 UTC al 22 a las 06 UTC
Viento 6 kt del oeste-suroeste
Visibilidad: 8000 m

TAF: ORNI 210400Z 2106/2206 VRB03KT 25006KT 8000 NSC

Observaciones y pronósticos meteorológicos de más de 4000 aeropuertos (mensajes METAR y TAF).

Los puntos amarillos y rojos representan las estaciones disponibles.

Ponga el ratón en el punto deseado para ver el nombre de la estación.

Haga clic para ver las observaciones y los pronósticos meteorológicos.

Para cambiar el mapa : haga clic en los botones verdes con una cruz de color negro para hacer un zoom, en el botón verde con un guión para alejar o en las flechas verdes para mapas adyacentes.


METAR-TAF: